North Atlanta RPC :: Staff VA 500A

liberation: 2021-04-17  07:30     latitude: 38.366981     longitude: -77.455199 116 birds
# LOFT PRING MILES ARRIVAL SPEED ToWin
Amelia Loft AU20-NA-1127 0 0000-00-00 00:00:00.000 0.000 00:00:00
Amelia Loft AU20-NA-1129 0 0000-00-00 00:00:00.000 0.000 00:00:00
Amelia Loft AU20-NA-1145 0 0000-00-00 00:00:00.000 0.000 00:00:00
Amelia Loft AU20-NA-1149 0 0000-00-00 00:00:00.000 0.000 00:00:00
Amelia Loft AU20-NA-1158 0 0000-00-00 00:00:00.000 0.000 00:00:00
Amelia Loft AU20-NA-1176 0 0000-00-00 00:00:00.000 0.000 00:00:00
Amelia Loft AU20-NA-1181 0 0000-00-00 00:00:00.000 0.000 00:00:00
Amelia Loft AU20-NA-1182 0 0000-00-00 00:00:00.000 0.000 00:00:00
Amelia Loft AU20-NA-1183 0 0000-00-00 00:00:00.000 0.000 00:00:00
Amelia Loft AU20-NA-1197 0 0000-00-00 00:00:00.000 0.000 00:00:00
Devore Loft AU17-FOYS-1314 0 0000-00-00 00:00:00.000 0.000 00:00:00
Devore Loft AU19-FOYS-7019 0 0000-00-00 00:00:00.000 0.000 00:00:00
Devore Loft AU19-FOYS-7035 0 0000-00-00 00:00:00.000 0.000 00:00:00
Devore Loft AU19-NA-0213 0 0000-00-00 00:00:00.000 0.000 00:00:00
Devore Loft AU19-NA-0235 0 0000-00-00 00:00:00.000 0.000 00:00:00
Devore Loft AU19-NA-2341 0 0000-00-00 00:00:00.000 0.000 00:00:00
Devore Loft AU20-AWG-0472 0 0000-00-00 00:00:00.000 0.000 00:00:00
Devore Loft AU20-DEVO-9948 0 0000-00-00 00:00:00.000 0.000 00:00:00
Devore Loft AU20-DEVO-9966 0 0000-00-00 00:00:00.000 0.000 00:00:00
Devore Loft AU20-DEVO-9970 0 0000-00-00 00:00:00.000 0.000 00:00:00
Devore Loft AU20-NA-0008 0 0000-00-00 00:00:00.000 0.000 00:00:00
Devore Loft AU20-NA-0016 0 0000-00-00 00:00:00.000 0.000 00:00:00
Devore Loft AU20-NA-0026 0 0000-00-00 00:00:00.000 0.000 00:00:00
Devore Loft AU20-NA-0059 0 0000-00-00 00:00:00.000 0.000 00:00:00
Devore Loft AU20-NA-0069 0 0000-00-00 00:00:00.000 0.000 00:00:00
Devore Loft AU20-NA-0072 0 0000-00-00 00:00:00.000 0.000 00:00:00
Devore Loft AU20-NA-0087 0 0000-00-00 00:00:00.000 0.000 00:00:00
Devore Loft AU20-NA-1967 0 0000-00-00 00:00:00.000 0.000 00:00:00
Devore Loft AU20-NA-1974 0 0000-00-00 00:00:00.000 0.000 00:00:00
Devore Loft AU20-NA-1979 0 0000-00-00 00:00:00.000 0.000 00:00:00
Harris Loft AU16-NA-0536 0 0000-00-00 00:00:00.000 0.000 00:00:00
Harris Loft AU16-NA-2284 0 0000-00-00 00:00:00.000 0.000 00:00:00
Harris Loft AU17-NA-0675 0 0000-00-00 00:00:00.000 0.000 00:00:00
Harris Loft AU17-NA-0758 0 0000-00-00 00:00:00.000 0.000 00:00:00
Harris Loft AU18-NA-0742 0 0000-00-00 00:00:00.000 0.000 00:00:00
Harris Loft AU18-NA-0762 0 0000-00-00 00:00:00.000 0.000 00:00:00
Harris Loft AU19-NA-0837 0 0000-00-00 00:00:00.000 0.000 00:00:00
Harris Loft AU19-NA-0843 0 0000-00-00 00:00:00.000 0.000 00:00:00
Harris Loft AU19-NA-0878 0 0000-00-00 00:00:00.000 0.000 00:00:00
Harris Loft AU20-NA-0581 0 0000-00-00 00:00:00.000 0.000 00:00:00
Harris Loft AU20-NA-0967 0 0000-00-00 00:00:00.000 0.000 00:00:00
Harris Loft AU20-NA-0974 0 0000-00-00 00:00:00.000 0.000 00:00:00
Harris Loft AU20-NA-0980 0 0000-00-00 00:00:00.000 0.000 00:00:00
HK Loft AU19-NA-0040 0 0000-00-00 00:00:00.000 0.000 00:00:00
HK Loft AU20-NA-0803 0 0000-00-00 00:00:00.000 0.000 00:00:00
HK Loft AU20-NA-0810 0 0000-00-00 00:00:00.000 0.000 00:00:00
HK Loft AU20-NA-0827 0 0000-00-00 00:00:00.000 0.000 00:00:00
HK Loft AU20-NA-0837 0 0000-00-00 00:00:00.000 0.000 00:00:00
HK Loft AU20-NA-0839 0 0000-00-00 00:00:00.000 0.000 00:00:00
HK Loft AU20-NA-0840 0 0000-00-00 00:00:00.000 0.000 00:00:00
HK Loft AU20-NA-0842 0 0000-00-00 00:00:00.000 0.000 00:00:00
HK Loft AU20-NA-0846 0 0000-00-00 00:00:00.000 0.000 00:00:00
HK Loft AU20-NA-0851 0 0000-00-00 00:00:00.000 0.000 00:00:00
HK Loft AU20-NA-0855 0 0000-00-00 00:00:00.000 0.000 00:00:00
HK Loft AU20-NA-0859 0 0000-00-00 00:00:00.000 0.000 00:00:00
HK Loft AU20-NA-0868 0 0000-00-00 00:00:00.000 0.000 00:00:00
HK Loft AU20-NA-0870 0 0000-00-00 00:00:00.000 0.000 00:00:00
HK Loft AU20-NA-0882 0 0000-00-00 00:00:00.000 0.000 00:00:00
Stoney Hill Loft AU16-NA-1057 0 0000-00-00 00:00:00.000 0.000 00:00:00
Stoney Hill Loft AU17-ARPU-49568 0 0000-00-00 00:00:00.000 0.000 00:00:00
Stoney Hill Loft AU18-NA-0876 0 0000-00-00 00:00:00.000 0.000 00:00:00
Stoney Hill Loft AU19-NA-0021 0 0000-00-00 00:00:00.000 0.000 00:00:00
Stoney Hill Loft AU19-NA-0038 0 0000-00-00 00:00:00.000 0.000 00:00:00
Stoney Hill Loft AU19-NA-0051 0 0000-00-00 00:00:00.000 0.000 00:00:00
Stoney Hill Loft AU19-NA-0084 0 0000-00-00 00:00:00.000 0.000 00:00:00
Stoney Hill Loft AU19-NA-0087 0 0000-00-00 00:00:00.000 0.000 00:00:00
Stoney Hill Loft AU19-NA-0092 0 0000-00-00 00:00:00.000 0.000 00:00:00
Stoney Hill Loft AU19-NA-0545 0 0000-00-00 00:00:00.000 0.000 00:00:00
Stoney Hill Loft AU19-NA-0595 0 0000-00-00 00:00:00.000 0.000 00:00:00
Stoney Hill Loft AU19-NA-2163 0 0000-00-00 00:00:00.000 0.000 00:00:00
Stoney Hill Loft AU20-NA-0106 0 0000-00-00 00:00:00.000 0.000 00:00:00
Stoney Hill Loft AU20-NA-0108 0 0000-00-00 00:00:00.000 0.000 00:00:00
Stoney Hill Loft AU20-NA-0114 0 0000-00-00 00:00:00.000 0.000 00:00:00
Stoney Hill Loft AU20-NA-0123 0 0000-00-00 00:00:00.000 0.000 00:00:00
Stoney Hill Loft AU20-NA-0125 0 0000-00-00 00:00:00.000 0.000 00:00:00
Stoney Hill Loft AU20-NA-0127 0 0000-00-00 00:00:00.000 0.000 00:00:00
Stoney Hill Loft AU20-NA-0128 0 0000-00-00 00:00:00.000 0.000 00:00:00
Stoney Hill Loft AU20-NA-0129 0 0000-00-00 00:00:00.000 0.000 00:00:00
Stoney Hill Loft AU20-NA-0132 0 0000-00-00 00:00:00.000 0.000 00:00:00
Stoney Hill Loft AU20-NA-0142 0 0000-00-00 00:00:00.000 0.000 00:00:00
Stoney Hill Loft AU20-NA-0144 0 0000-00-00 00:00:00.000 0.000 00:00:00
Stoney Hill Loft AU20-NA-0145 0 0000-00-00 00:00:00.000 0.000 00:00:00
Stoney Hill Loft AU20-NA-0148 0 0000-00-00 00:00:00.000 0.000 00:00:00
Stoney Hill Loft AU20-NA-0155 0 0000-00-00 00:00:00.000 0.000 00:00:00
Stoney Hill Loft AU20-NA-0158 0 0000-00-00 00:00:00.000 0.000 00:00:00
Stoney Hill Loft AU20-NA-0159 0 0000-00-00 00:00:00.000 0.000 00:00:00
Stoney Hill Loft AU20-NA-0160 0 0000-00-00 00:00:00.000 0.000 00:00:00
Stoney Hill Loft AU20-NA-0163 0 0000-00-00 00:00:00.000 0.000 00:00:00
Stoney Hill Loft AU20-NA-0197 0 0000-00-00 00:00:00.000 0.000 00:00:00
Stoney Hill Loft AU20-NA-0198 0 0000-00-00 00:00:00.000 0.000 00:00:00
Stoney Hill Loft AU20-NA-0429 0 0000-00-00 00:00:00.000 0.000 00:00:00
Stoney Hill Loft AU20-NA-0431 0 0000-00-00 00:00:00.000 0.000 00:00:00
Stoney Hill Loft AU20-NA-0433 0 0000-00-00 00:00:00.000 0.000 00:00:00
Stoney Hill Loft AU20-NA-0437 0 0000-00-00 00:00:00.000 0.000 00:00:00
Stoney Hill Loft AU20-NA-0455 0 0000-00-00 00:00:00.000 0.000 00:00:00
Stoney Hill Loft AU20-NA-0464 0 0000-00-00 00:00:00.000 0.000 00:00:00
Stoney Hill Loft AU20-NA-0465 0 0000-00-00 00:00:00.000 0.000 00:00:00
Yellow Jacket AU14-NA-0245 0 0000-00-00 00:00:00.000 0.000 00:00:00
Yellow Jacket AU16-NA-0059 0 0000-00-00 00:00:00.000 0.000 00:00:00
Yellow Jacket AU16-NA-0071 0 0000-00-00 00:00:00.000 0.000 00:00:00
Yellow Jacket AU16-NA-0080 0 0000-00-00 00:00:00.000 0.000 00:00:00
Yellow Jacket AU16-NA-2248 0 0000-00-00 00:00:00.000 0.000 00:00:00
Yellow Jacket AU17-NA-0136 0 0000-00-00 00:00:00.000 0.000 00:00:00
Yellow Jacket AU17-NA-0139 0 0000-00-00 00:00:00.000 0.000 00:00:00
Yellow Jacket AU17-NA-0151 0 0000-00-00 00:00:00.000 0.000 00:00:00
Yellow Jacket AU17-NA-0175 0 0000-00-00 00:00:00.000 0.000 00:00:00
Yellow Jacket AU17-NA-0969 0 0000-00-00 00:00:00.000 0.000 00:00:00
Yellow Jacket AU17-NA-49504 0 0000-00-00 00:00:00.000 0.000 00:00:00
Yellow Jacket AU18-NA-0222 0 0000-00-00 00:00:00.000 0.000 00:00:00
Yellow Jacket AU18-NA-0244 0 0000-00-00 00:00:00.000 0.000 00:00:00
Yellow Jacket AU18-NA-0256 0 0000-00-00 00:00:00.000 0.000 00:00:00
Yellow Jacket AU18-NA-2461 0 0000-00-00 00:00:00.000 0.000 00:00:00
Yellow Jacket AU18-NA-2466 0 0000-00-00 00:00:00.000 0.000 00:00:00
Yellow Jacket AU19-NA-0633 0 0000-00-00 00:00:00.000 0.000 00:00:00
Yellow Jacket AU19-NA-0697 0 0000-00-00 00:00:00.000 0.000 00:00:00
Yellow Jacket AU19-NA-2336 0 0000-00-00 00:00:00.000 0.000 00:00:00